sensor_id;sensor_type;location;lat;lon;timestamp;pressure;altitude;pressure_sealevel;temperature;humidity
31346;BME280;21711;49.708;18.568;2023-11-22T00:00:44;97447.88;;;1.92;100.00
31346;BME280;21711;49.708;18.568;2023-11-22T00:03:11;97442.34;;;1.81;100.00
31346;BME280;21711;49.708;18.568;2023-11-22T00:05:38;97446.09;;;1.92;100.00
31346;BME280;21711;49.708;18.568;2023-11-22T00:08:06;97449.22;;;2.01;100.00
31346;BME280;21711;49.708;18.568;2023-11-22T00:10:33;97446.63;;;2.01;100.00
31346;BME280;21711;49.708;18.568;2023-11-22T00:13:01;97449.63;;;2.05;100.00
31346;BME280;21711;49.708;18.568;2023-11-22T00:15:29;97459.13;;;1.92;100.00
31346;BME280;21711;49.708;18.568;2023-11-22T00:17:56;97460.91;;;1.92;100.00
31346;BME280;21711;49.708;18.568;2023-11-22T00:20:25;97459.81;;;1.81;100.00
31346;BME280;21711;49.708;18.568;2023-11-22T00:22:52;97467.69;;;1.74;100.00
31346;BME280;21711;49.708;18.568;2023-11-22T00:25:19;97475.22;;;1.82;100.00
31346;BME280;21711;49.708;18.568;2023-11-22T00:27:47;97481.03;;;1.84;100.00
31346;BME280;21711;49.708;18.568;2023-11-22T00:30:14;97482.69;;;1.79;100.00
31346;BME280;21711;49.708;18.568;2023-11-22T00:32:42;97478.44;;;1.84;100.00
31346;BME280;21711;49.708;18.568;2023-11-22T00:35:10;97481.47;;;1.81;100.00
31346;BME280;21711;49.708;18.568;2023-11-22T00:37:37;97488.38;;;1.69;100.00
31346;BME280;21711;49.708;18.568;2023-11-22T00:40:05;97481.03;;;1.84;100.00
31346;BME280;21711;49.708;18.568;2023-11-22T00:42:38;97484.91;;;1.75;100.00
31346;BME280;21711;49.708;18.568;2023-11-22T00:45:08;97484.88;;;1.82;100.00
31346;BME280;21711;49.708;18.568;2023-11-22T00:47:37;97479.63;;;1.89;100.00
31346;BME280;21711;49.708;18.568;2023-11-22T00:50:07;97477.78;;;1.89;100.00
31346;BME280;21711;49.708;18.568;2023-11-22T00:52:35;97475.84;;;1.84;100.00
31346;BME280;21711;49.708;18.568;2023-11-22T00:55:03;97488.44;;;1.88;100.00
31346;BME280;21711;49.708;18.568;2023-11-22T00:57:30;97483.22;;;1.88;100.00
31346;BME280;21711;49.708;18.568;2023-11-22T00:59:57;97489.94;;;1.77;100.00
31346;BME280;21711;49.708;18.568;2023-11-22T01:02:25;97484.13;;;1.68;100.00
31346;BME280;21711;49.708;18.568;2023-11-22T01:04:53;97492.56;;;1.70;100.00
31346;BME280;21711;49.708;18.568;2023-11-22T01:07:20;97497.78;;;1.70;100.00
31346;BME280;21711;49.708;18.568;2023-11-22T01:09:47;97493.16;;;1.72;100.00
31346;BME280;21711;49.708;18.568;2023-11-22T01:12:15;97498.69;;;1.82;100.00
31346;BME280;21711;49.708;18.568;2023-11-22T01:14:43;97507.16;;;1.78;100.00
31346;BME280;21711;49.708;18.568;2023-11-22T01:17:10;97506.00;;;1.67;100.00
31346;BME280;21711;49.708;18.568;2023-11-22T01:19:38;97509.50;;;1.54;100.00
31346;BME280;21711;49.708;18.568;2023-11-22T01:22:05;97505.25;;;1.60;100.00
31346;BME280;21711;49.708;18.568;2023-11-22T01:24:33;97509.47;;;1.61;100.00
31346;BME280;21711;49.708;18.568;2023-11-22T01:27:01;97505.44;;;1.65;100.00
31346;BME280;21711;49.708;18.568;2023-11-22T01:29:29;97512.63;;;1.69;100.00
31346;BME280;21711;49.708;18.568;2023-11-22T01:31:57;97504.25;;;1.61;100.00
31346;BME280;21711;49.708;18.568;2023-11-22T01:34:24;97505.22;;;1.66;100.00
31346;BME280;21711;49.708;18.568;2023-11-22T01:36:52;97508.44;;;1.62;100.00
31346;BME280;21711;49.708;18.568;2023-11-22T01:39:19;97507.50;;;1.49;100.00
31346;BME280;21711;49.708;18.568;2023-11-22T01:41:48;97502.91;;;1.44;100.00
31346;BME280;21711;49.708;18.568;2023-11-22T01:44:16;97514.34;;;1.43;100.00
31346;BME280;21711;49.708;18.568;2023-11-22T01:46:45;97516.34;;;1.41;100.00
31346;BME280;21711;49.708;18.568;2023-11-22T01:49:13;97516.28;;;1.55;100.00
31346;BME280;21711;49.708;18.568;2023-11-22T01:51:41;97518.09;;;1.54;100.00
31346;BME280;21711;49.708;18.568;2023-11-22T01:54:08;97518.72;;;1.50;100.00
31346;BME280;21711;49.708;18.568;2023-11-22T01:56:37;97526.34;;;1.51;100.00
31346;BME280;21711;49.708;18.568;2023-11-22T01:59:05;97541.81;;;1.46;100.00
31346;BME280;21711;49.708;18.568;2023-11-22T02:01:33;97542.00;;;1.51;100.00
31346;BME280;21711;49.708;18.568;2023-11-22T02:04:00;97549.19;;;1.56;100.00
31346;BME280;21711;49.708;18.568;2023-11-22T02:06:28;97547.59;;;1.55;100.00
31346;BME280;21711;49.708;18.568;2023-11-22T02:08:59;97542.19;;;1.50;100.00
31346;BME280;21711;49.708;18.568;2023-11-22T02:11:27;97547.78;;;1.53;100.00
31346;BME280;21711;49.708;18.568;2023-11-22T02:13:55;97548.59;;;1.54;100.00
31346;BME280;21711;49.708;18.568;2023-11-22T02:16:23;97546.00;;;1.47;100.00
31346;BME280;21711;49.708;18.568;2023-11-22T02:18:50;97546.00;;;1.47;100.00
31346;BME280;21711;49.708;18.568;2023-11-22T02:21:17;97545.66;;;1.37;100.00
31346;BME280;21711;49.708;18.568;2023-11-22T02:23:45;97550.69;;;1.31;100.00
31346;BME280;21711;49.708;18.568;2023-11-22T02:26:13;97550.88;;;1.30;100.00
31346;BME280;21711;49.708;18.568;2023-11-22T02:28:45;97558.28;;;1.33;100.00
31346;BME280;21711;49.708;18.568;2023-11-22T02:31:12;97549.09;;;1.24;100.00
31346;BME280;21711;49.708;18.568;2023-11-22T02:33:40;97556.91;;;1.24;100.00
31346;BME280;21711;49.708;18.568;2023-11-22T02:36:09;97558.06;;;1.41;100.00
31346;BME280;21711;49.708;18.568;2023-11-22T02:38:40;97561.81;;;1.59;100.00
31346;BME280;21711;49.708;18.568;2023-11-22T02:41:08;97568.22;;;1.63;100.00
31346;BME280;21711;49.708;18.568;2023-11-22T02:43:36;97565.22;;;1.60;100.00
31346;BME280;21711;49.708;18.568;2023-11-22T02:46:04;97567.22;;;1.57;100.00
31346;BME280;21711;49.708;18.568;2023-11-22T02:48:31;97569.66;;;1.52;100.00
31346;BME280;21711;49.708;18.568;2023-11-22T02:50:59;97567.25;;;1.51;100.00
31346;BME280;21711;49.708;18.568;2023-11-22T02:53:26;97574.06;;;1.52;100.00
31346;BME280;21711;49.708;18.568;2023-11-22T02:55:54;97574.34;;;1.23;100.00
31346;BME280;21711;49.708;18.568;2023-11-22T02:58:22;97576.34;;;1.21;100.00
31346;BME280;21711;49.708;18.568;2023-11-22T03:00:50;97590.19;;;1.15;100.00
31346;BME280;21711;49.708;18.568;2023-11-22T03:03:17;97591.00;;;1.15;100.00
31346;BME280;21711;49.708;18.568;2023-11-22T03:05:45;97603.00;;;1.23;100.00
31346;BME280;21711;49.708;18.568;2023-11-22T03:08:12;97593.16;;;1.25;100.00
31346;BME280;21711;49.708;18.568;2023-11-22T03:10:41;97598.38;;;1.32;100.00
31346;BME280;21711;49.708;18.568;2023-11-22T03:13:09;97609.81;;;1.31;100.00
31346;BME280;21711;49.708;18.568;2023-11-22T03:15:36;97616.25;;;1.15;100.00
31346;BME280;21711;49.708;18.568;2023-11-22T03:18:05;97618.03;;;1.28;100.00
31346;BME280;21711;49.708;18.568;2023-11-22T03:20:34;97621.06;;;1.18;100.00
31346;BME280;21711;49.708;18.568;2023-11-22T03:23:01;97618.63;;;1.30;100.00
31346;BME280;21711;49.708;18.568;2023-11-22T03:25:29;97627.47;;;1.29;100.00
31346;BME280;21711;49.708;18.568;2023-11-22T03:27:57;97632.28;;;1.12;100.00
31346;BME280;21711;49.708;18.568;2023-11-22T03:30:24;97635.69;;;1.19;100.00
31346;BME280;21711;49.708;18.568;2023-11-22T03:32:51;97637.47;;;1.25;100.00
31346;BME280;21711;49.708;18.568;2023-11-22T03:35:19;97636.50;;;1.13;100.00
31346;BME280;21711;49.708;18.568;2023-11-22T03:37:47;97638.47;;;1.17;100.00
31346;BME280;21711;49.708;18.568;2023-11-22T03:40:15;97645.09;;;1.27;100.00
31346;BME280;21711;49.708;18.568;2023-11-22T03:42:42;97648.13;;;1.17;100.00
31346;BME280;21711;49.708;18.568;2023-11-22T03:45:12;97654.34;;;1.02;100.00
31346;BME280;21711;49.708;18.568;2023-11-22T03:47:41;97659.56;;;0.96;100.00
31346;BME280;21711;49.708;18.568;2023-11-22T03:50:08;97664.97;;;1.01;100.00
31346;BME280;21711;49.708;18.568;2023-11-22T03:52:37;97667.75;;;1.06;100.00
31346;BME280;21711;49.708;18.568;2023-11-22T03:55:05;97679.97;;;1.19;100.00
31346;BME280;21711;49.708;18.568;2023-11-22T03:57:33;97679.16;;;1.25;100.00
31346;BME280;21711;49.708;18.568;2023-11-22T04:00:00;97687.78;;;1.19;100.00
31346;BME280;21711;49.708;18.568;2023-11-22T04:02:38;97694.41;;;1.28;100.00
31346;BME280;21711;49.708;18.568;2023-11-22T04:05:07;97700.03;;;1.05;100.00
31346;BME280;21711;49.708;18.568;2023-11-22T04:07:35;97700.41;;;0.95;100.00
31346;BME280;21711;49.708;18.568;2023-11-22T04:10:03;97707.63;;;1.00;100.00
31346;BME280;21711;49.708;18.568;2023-11-22T04:12:31;97706.22;;;1.04;100.00
31346;BME280;21711;49.708;18.568;2023-11-22T04:15:02;97712.41;;;0.89;100.00
31346;BME280;21711;49.708;18.568;2023-11-22T04:17:30;97718.25;;;0.98;100.00
31346;BME280;21711;49.708;18.568;2023-11-22T04:19:58;97722.84;;;0.89;100.00
31346;BME280;21711;49.708;18.568;2023-11-22T04:22:25;97729.06;;;1.09;100.00
31346;BME280;21711;49.708;18.568;2023-11-22T04:24:53;97729.09;;;1.15;100.00
31346;BME280;21711;49.708;18.568;2023-11-22T04:27:20;97719.84;;;0.99;100.00
31346;BME280;21711;49.708;18.568;2023-11-22T04:29:48;97721.25;;;0.95;100.00
31346;BME280;21711;49.708;18.568;2023-11-22T04:32:15;97731.69;;;1.02;100.00
31346;BME280;21711;49.708;18.568;2023-11-22T04:34:43;97732.25;;;0.97;100.00
31346;BME280;21711;49.708;18.568;2023-11-22T04:37:10;97740.06;;;0.97;100.00
31346;BME280;21711;49.708;18.568;2023-11-22T04:39:37;97753.50;;;0.94;100.00
31346;BME280;21711;49.708;18.568;2023-11-22T04:42:05;97755.03;;;0.68;100.00
31346;BME280;21711;49.708;18.568;2023-11-22T04:44:33;97760.69;;;0.78;100.00
31346;BME280;21711;49.708;18.568;2023-11-22T04:47:00;97760.28;;;0.82;100.00
31346;BME280;21711;49.708;18.568;2023-11-22T04:49:27;97761.88;;;0.76;100.00
31346;BME280;21711;49.708;18.568;2023-11-22T04:51:55;97768.91;;;0.82;100.00
31346;BME280;21711;49.708;18.568;2023-11-22T04:54:22;97766.44;;;0.67;100.00
31346;BME280;21711;49.708;18.568;2023-11-22T04:56:50;97775.53;;;0.85;100.00
31346;BME280;21711;49.708;18.568;2023-11-22T04:59:17;97775.50;;;0.78;100.00
31346;BME280;21711;49.708;18.568;2023-11-22T05:01:45;97781.47;;;0.65;100.00
31346;BME280;21711;49.708;18.568;2023-11-22T05:04:12;97781.91;;;0.75;100.00
31346;BME280;21711;49.708;18.568;2023-11-22T05:06:40;97796.53;;;0.83;100.00
31346;BME280;21711;49.708;18.568;2023-11-22T05:09:07;97798.56;;;0.88;100.00
31346;BME280;21711;49.708;18.568;2023-11-22T05:11:37;97799.38;;;0.95;100.00
31346;BME280;21711;49.708;18.568;2023-11-22T05:14:04;97804.22;;;0.98;100.00
31346;BME280;21711;49.708;18.568;2023-11-22T05:16:32;97807.41;;;1.00;100.00
31346;BME280;21711;49.708;18.568;2023-11-22T05:19:00;97816.22;;;0.93;100.00
31346;BME280;21711;49.708;18.568;2023-11-22T05:21:28;97811.78;;;0.80;100.00
31346;BME280;21711;49.708;18.568;2023-11-22T05:23:55;97813.72;;;0.71;100.00
31346;BME280;21711;49.708;18.568;2023-11-22T05:26:23;97809.50;;;0.63;100.00
31346;BME280;21711;49.708;18.568;2023-11-22T05:28:50;97812.94;;;0.70;100.00
31346;BME280;21711;49.708;18.568;2023-11-22T05:31:23;97826.13;;;0.62;100.00
31346;BME280;21711;49.708;18.568;2023-11-22T05:33:51;97825.16;;;0.76;100.00
31346;BME280;21711;49.708;18.568;2023-11-22T05:36:18;97827.59;;;0.85;100.00
31346;BME280;21711;49.708;18.568;2023-11-22T05:38:46;97829.81;;;0.88;100.00
31346;BME280;21711;49.708;18.568;2023-11-22T05:41:13;97825.53;;;0.73;100.00
31346;BME280;21711;49.708;18.568;2023-11-22T05:43:41;97821.34;;;0.72;100.00
31346;BME280;21711;49.708;18.568;2023-11-22T05:46:09;97823.56;;;0.75;100.00
31346;BME280;21711;49.708;18.568;2023-11-22T05:48:41;97830.50;;;0.61;100.00
31346;BME280;21711;49.708;18.568;2023-11-22T05:51:08;97829.72;;;0.61;100.00
31346;BME280;21711;49.708;18.568;2023-11-22T05:53:36;97829.13;;;0.65;100.00
31346;BME280;21711;49.708;18.568;2023-11-22T05:56:03;97832.53;;;0.66;100.00
31346;BME280;21711;49.708;18.568;2023-11-22T05:58:34;97826.53;;;0.65;100.00
31346;BME280;21711;49.708;18.568;2023-11-22T06:01:05;97845.78;;;0.71;100.00
31346;BME280;21711;49.708;18.568;2023-11-22T06:03:34;97853.34;;;0.59;100.00
31346;BME280;21711;49.708;18.568;2023-11-22T06:06:02;97854.78;;;0.69;100.00
31346;BME280;21711;49.708;18.568;2023-11-22T06:08:30;97861.78;;;0.68;100.00
31346;BME280;21711;49.708;18.568;2023-11-22T06:10:58;97868.84;;;0.74;100.00
31346;BME280;21711;49.708;18.568;2023-11-22T06:13:27;97872.38;;;0.60;100.00
31346;BME280;21711;49.708;18.568;2023-11-22T06:15:54;97872.97;;;0.62;100.00
31346;BME280;21711;49.708;18.568;2023-11-22T06:18:22;97867.31;;;0.51;100.00
31346;BME280;21711;49.708;18.568;2023-11-22T06:20:49;97880.34;;;0.51;100.00
31346;BME280;21711;49.708;18.568;2023-11-22T06:23:17;97880.16;;;0.53;100.00
31346;BME280;21711;49.708;18.568;2023-11-22T06:25:45;97890.22;;;0.70;100.00
31346;BME280;21711;49.708;18.568;2023-11-22T06:28:12;97881.91;;;0.46;100.00
31346;BME280;21711;49.708;18.568;2023-11-22T06:30:40;97881.94;;;0.52;100.00
31346;BME280;21711;49.708;18.568;2023-11-22T06:33:07;97878.16;;;0.55;100.00
31346;BME280;21711;49.708;18.568;2023-11-22T06:35:34;97888.03;;;0.73;100.00
31346;BME280;21711;49.708;18.568;2023-11-22T06:38:03;97883.41;;;0.69;100.00
31346;BME280;21711;49.708;18.568;2023-11-22T06:40:30;97882.66;;;0.82;100.00
31346;BME280;21711;49.708;18.568;2023-11-22T06:42:58;97886.94;;;0.54;100.00
31346;BME280;21711;49.708;18.568;2023-11-22T06:45:25;97897.19;;;0.27;100.00
31346;BME280;21711;49.708;18.568;2023-11-22T06:47:53;97902.13;;;0.44;100.00
31346;BME280;21711;49.708;18.568;2023-11-22T06:50:20;97907.59;;;0.56;100.00
31346;BME280;21711;49.708;18.568;2023-11-22T06:52:48;97906.66;;;0.35;100.00
31346;BME280;21711;49.708;18.568;2023-11-22T06:55:17;97909.97;;;0.22;100.00
31346;BME280;21711;49.708;18.568;2023-11-22T06:57:44;97913.53;;;0.49;100.00
31346;BME280;21711;49.708;18.568;2023-11-22T07:00:12;97922.44;;;0.62;100.00
31346;BME280;21711;49.708;18.568;2023-11-22T07:02:40;97915.81;;;0.59;100.00
31346;BME280;21711;49.708;18.568;2023-11-22T07:05:07;97918.22;;;0.61;100.00
31346;BME280;21711;49.708;18.568;2023-11-22T07:07:37;97913.50;;;0.43;100.00
31346;BME280;21711;49.708;18.568;2023-11-22T07:10:05;97920.06;;;0.32;100.00
31346;BME280;21711;49.708;18.568;2023-11-22T07:12:33;97926.69;;;0.34;100.00
31346;BME280;21711;49.708;18.568;2023-11-22T07:15:04;97930.34;;;0.47;100.00
31346;BME280;21711;49.708;18.568;2023-11-22T07:17:36;97931.78;;;0.21;100.00
31346;BME280;21711;49.708;18.568;2023-11-22T07:20:06;97934.19;;;0.22;100.00
31346;BME280;21711;49.708;18.568;2023-11-22T07:22:36;97945.78;;;0.20;100.00
31346;BME280;21711;49.708;18.568;2023-11-22T07:25:05;97946.72;;;0.12;100.00
31346;BME280;21711;49.708;18.568;2023-11-22T07:27:34;97957.13;;;-0.10;100.00
31346;BME280;21711;49.708;18.568;2023-11-22T07:30:01;97961.47;;;-0.17;100.00
31346;BME280;21711;49.708;18.568;2023-11-22T07:32:29;97963.69;;;0.08;100.00
31346;BME280;21711;49.708;18.568;2023-11-22T07:34:57;97970.56;;;0.16;100.00
31346;BME280;21711;49.708;18.568;2023-11-22T07:37:30;97961.53;;;0.11;100.00
31346;BME280;21711;49.708;18.568;2023-11-22T07:39:58;97959.03;;;0.03;100.00
31346;BME280;21711;49.708;18.568;2023-11-22T07:42:26;97964.31;;;0.10;100.00
31346;BME280;21711;49.708;18.568;2023-11-22T07:44:53;97976.56;;;0.16;100.00
31346;BME280;21711;49.708;18.568;2023-11-22T07:47:23;97973.22;;;0.22;100.00
31346;BME280;21711;49.708;18.568;2023-11-22T07:49:52;97992.63;;;0.20;100.00
31346;BME280;21711;49.708;18.568;2023-11-22T07:52:20;97991.38;;;-0.06;100.00
31346;BME280;21711;49.708;18.568;2023-11-22T07:54:47;97990.94;;;0.12;100.00
31346;BME280;21711;49.708;18.568;2023-11-22T07:57:15;97981.28;;;0.06;100.00
31346;BME280;21711;49.708;18.568;2023-11-22T07:59:42;97981.03;;;0.01;100.00
31346;BME280;21711;49.708;18.568;2023-11-22T08:02:09;97983.94;;;0.12;100.00
31346;BME280;21711;49.708;18.568;2023-11-22T08:04:39;97995.06;;;0.28;100.00
31346;BME280;21711;49.708;18.568;2023-11-22T08:07:07;98007.91;;;0.30;100.00
31346;BME280;21711;49.708;18.568;2023-11-22T08:09:35;98024.94;;;0.32;100.00
31346;BME280;21711;49.708;18.568;2023-11-22T08:12:03;98023.81;;;-0.02;100.00
31346;BME280;21711;49.708;18.568;2023-11-22T08:14:32;98021.84;;;0.00;100.00
31346;BME280;21711;49.708;18.568;2023-11-22T08:17:00;98030.75;;;0.12;100.00
31346;BME280;21711;49.708;18.568;2023-11-22T08:19:29;98036.78;;;0.13;100.00
31346;BME280;21711;49.708;18.568;2023-11-22T08:21:56;98029.03;;;-0.02;100.00
31346;BME280;21711;49.708;18.568;2023-11-22T08:24:25;98025.13;;;0.09;100.00
31346;BME280;21711;49.708;18.568;2023-11-22T08:26:52;98010.84;;;-0.17;100.00
31346;BME280;21711;49.708;18.568;2023-11-22T08:29:19;98022.97;;;-0.09;100.00
31346;BME280;21711;49.708;18.568;2023-11-22T08:31:47;98019.69;;;0.04;100.00
31346;BME280;21711;49.708;18.568;2023-11-22T08:34:18;98028.53;;;-0.12;100.00
31346;BME280;21711;49.708;18.568;2023-11-22T08:36:45;98032.50;;;0.05;100.00
31346;BME280;21711;49.708;18.568;2023-11-22T08:39:12;98038.19;;;0.16;100.00
31346;BME280;21711;49.708;18.568;2023-11-22T08:41:39;98043.50;;;0.07;100.00
31346;BME280;21711;49.708;18.568;2023-11-22T08:44:07;98037.56;;;-0.08;100.00
31346;BME280;21711;49.708;18.568;2023-11-22T08:46:34;98037.75;;;-0.10;100.00
31346;BME280;21711;49.708;18.568;2023-11-22T08:49:02;98047.16;;;-0.09;100.00
31346;BME280;21711;49.708;18.568;2023-11-22T08:51:29;98048.69;;;-0.15;100.00
31346;BME280;21711;49.708;18.568;2023-11-22T08:53:57;98047.03;;;-0.01;100.00
31346;BME280;21711;49.708;18.568;2023-11-22T08:56:24;98049.75;;;-0.09;100.00
31346;BME280;21711;49.708;18.568;2023-11-22T08:58:52;98047.16;;;-0.09;100.00
31346;BME280;21711;49.708;18.568;2023-11-22T09:01:20;98046.47;;;0.04;100.00
31346;BME280;21711;49.708;18.568;2023-11-22T09:03:47;98041.03;;;-0.01;100.00
31346;BME280;21711;49.708;18.568;2023-11-22T09:06:14;98046.81;;;-0.21;100.00
31346;BME280;21711;49.708;18.568;2023-11-22T09:08:42;98043.94;;;-0.11;100.00
31346;BME280;21711;49.708;18.568;2023-11-22T09:11:09;98053.56;;;0.10;100.00
31346;BME280;21711;49.708;18.568;2023-11-22T09:13:37;98057.19;;;0.16;100.00
31346;BME280;21711;49.708;18.568;2023-11-22T09:16:05;98056.28;;;0.02;100.00
31346;BME280;21711;49.708;18.568;2023-11-22T09:18:33;98066.97;;;-0.08;100.00
31346;BME280;21711;49.708;18.568;2023-11-22T09:21:00;98084.00;;;-0.05;100.00
31346;BME280;21711;49.708;18.568;2023-11-22T09:23:28;98085.41;;;-0.03;100.00
31346;BME280;21711;49.708;18.568;2023-11-22T09:25:57;98083.16;;;0.09;100.00
31346;BME280;21711;49.708;18.568;2023-11-22T09:28:24;98090.22;;;0.16;100.00
31346;BME280;21711;49.708;18.568;2023-11-22T09:30:52;98093.25;;;0.19;100.00
31346;BME280;21711;49.708;18.568;2023-11-22T09:33:19;98100.84;;;-0.01;100.00
31346;BME280;21711;49.708;18.568;2023-11-22T09:35:47;98090.50;;;-0.31;100.00
31346;BME280;21711;49.708;18.568;2023-11-22T09:38:15;98088.25;;;-0.19;100.00
31346;BME280;21711;49.708;18.568;2023-11-22T09:40:45;98085.50;;;0.04;100.00
31346;BME280;21711;49.708;18.568;2023-11-22T09:43:15;98083.97;;;0.10;100.00
31346;BME280;21711;49.708;18.568;2023-11-22T09:45:48;98078.00;;;0.16;100.00
31346;BME280;21711;49.708;18.568;2023-11-22T09:48:24;98089.34;;;0.08;100.00
31346;BME280;21711;49.708;18.568;2023-11-22T09:54:04;98094.47;;;0.02;100.00
31346;BME280;21711;49.708;18.568;2023-11-22T09:56:34;98102.13;;;0.25;100.00
31346;BME280;21711;49.708;18.568;2023-11-22T09:59:04;98108.38;;;0.31;100.00
31346;BME280;21711;49.708;18.568;2023-11-22T10:01:35;98111.63;;;0.33;100.00
31346;BME280;21711;49.708;18.568;2023-11-22T10:04:06;98122.53;;;0.43;100.00
31346;BME280;21711;49.708;18.568;2023-11-22T10:06:34;98131.53;;;0.25;100.00
31346;BME280;21711;49.708;18.568;2023-11-22T10:09:03;98134.97;;;0.26;100.00
31346;BME280;21711;49.708;18.568;2023-11-22T10:11:36;98131.44;;;0.34;100.00
31346;BME280;21711;49.708;18.568;2023-11-22T10:14:06;98144.44;;;0.34;100.00
31346;BME280;21711;49.708;18.568;2023-11-22T10:16:33;98146.75;;;0.44;100.00
31346;BME280;21711;49.708;18.568;2023-11-22T10:19:01;98143.84;;;0.32;100.00
31346;BME280;21711;49.708;18.568;2023-11-22T10:21:34;98137.38;;;0.28;100.00
31346;BME280;21711;49.708;18.568;2023-11-22T10:24:03;98136.50;;;0.20;100.00
31346;BME280;21711;49.708;18.568;2023-11-22T10:26:31;98135.97;;;0.25;100.00
31346;BME280;21711;49.708;18.568;2023-11-22T10:28:59;98126.66;;;0.37;100.00
31346;BME280;21711;49.708;18.568;2023-11-22T10:31:27;98131.63;;;0.32;100.00
31346;BME280;21711;49.708;18.568;2023-11-22T10:33:55;98131.19;;;0.29;100.00
31346;BME280;21711;49.708;18.568;2023-11-22T10:36:26;98136.31;;;0.22;100.00
31346;BME280;21711;49.708;18.568;2023-11-22T10:38:54;98139.34;;;0.25;100.00
31346;BME280;21711;49.708;18.568;2023-11-22T10:41:22;98133.44;;;0.32;100.00
31346;BME280;21711;49.708;18.568;2023-11-22T10:43:52;98117.88;;;0.38;100.00
31346;BME280;21711;49.708;18.568;2023-11-22T10:46:30;98113.22;;;0.34;100.00
31346;BME280;21711;49.708;18.568;2023-11-22T10:48:58;98123.63;;;0.12;100.00
31346;BME280;21711;49.708;18.568;2023-11-22T10:51:33;98126.66;;;0.16;100.00
31346;BME280;21711;49.708;18.568;2023-11-22T10:54:01;98113.22;;;0.12;100.00
31346;BME280;21711;49.708;18.568;2023-11-22T10:56:40;98116.25;;;0.16;100.00
31346;BME280;21711;49.708;18.568;2023-11-22T10:59:15;98116.00;;;0.32;100.00
31346;BME280;21711;49.708;18.568;2023-11-22T11:01:48;98099.09;;;-0.16;100.00
31346;BME280;21711;49.708;18.568;2023-11-22T11:04:29;98109.63;;;0.13;100.00
31346;BME280;21711;49.708;18.568;2023-11-22T11:06:58;98115.03;;;-0.04;100.00
31346;BME280;21711;49.708;18.568;2023-11-22T11:09:27;98116.38;;;0.29;100.00
31346;BME280;21711;49.708;18.568;2023-11-22T11:12:00;98110.13;;;0.23;100.00
31346;BME280;21711;49.708;18.568;2023-11-22T11:14:34;98110.97;;;0.31;100.00
31346;BME280;21711;49.708;18.568;2023-11-22T11:17:03;98110.97;;;0.31;100.00
31346;BME280;21711;49.708;18.568;2023-11-22T11:19:32;98110.47;;;0.20;100.00
31346;BME280;21711;49.708;18.568;2023-11-22T11:22:01;98117.44;;;0.35;100.00
31346;BME280;21711;49.708;18.568;2023-11-22T11:24:28;98129.09;;;0.39;100.00
31346;BME280;21711;49.708;18.568;2023-11-22T11:26:55;98132.53;;;0.24;100.00
31346;BME280;21711;49.708;18.568;2023-11-22T11:29:36;98124.91;;;0.01;100.00
31346;BME280;21711;49.708;18.568;2023-11-22T11:32:45;98138.59;;;0.10;100.00
31346;BME280;21711;49.708;18.568;2023-11-22T11:35:06;98130.97;;;0.08;100.00
31346;BME280;21711;49.708;18.568;2023-11-22T11:37:37;98138.06;;;0.15;100.00
31346;BME280;21711;49.708;18.568;2023-11-22T11:40:26;98148.25;;;0.16;100.00
31346;BME280;21711;49.708;18.568;2023-11-22T11:42:55;98152.44;;;0.32;100.00
31346;BME280;21711;49.708;18.568;2023-11-22T11:45:22;98160.28;;;0.17;100.00
31346;BME280;21711;49.708;18.568;2023-11-22T11:47:49;98164.75;;;0.23;100.00
31346;BME280;21711;49.708;18.568;2023-11-22T11:50:20;98169.03;;;0.31;100.00
31346;BME280;21711;49.708;18.568;2023-11-22T11:52:49;98175.56;;;0.42;100.00
31346;BME280;21711;49.708;18.568;2023-11-22T11:55:16;98179.28;;;0.33;100.00
31346;BME280;21711;49.708;18.568;2023-11-22T11:57:43;98185.00;;;0.28;100.00
31346;BME280;21711;49.708;18.568;2023-11-22T12:00:14;98169.72;;;0.40;100.00
31346;BME280;21711;49.708;18.568;2023-11-22T12:02:42;98173.03;;;0.49;100.00
31346;BME280;21711;49.708;18.568;2023-11-22T12:05:09;98171.69;;;0.53;100.00
31346;BME280;21711;49.708;18.568;2023-11-22T12:07:37;98174.47;;;0.51;100.00
31346;BME280;21711;49.708;18.568;2023-11-22T12:10:05;98175.13;;;0.38;100.00
31346;BME280;21711;49.708;18.568;2023-11-22T12:12:34;98178.59;;;0.24;100.00
31346;BME280;21711;49.708;18.568;2023-11-22T12:15:03;98180.28;;;0.32;100.00
31346;BME280;21711;49.708;18.568;2023-11-22T12:17:32;98182.47;;;0.35;100.00
31346;BME280;21711;49.708;18.568;2023-11-22T12:20:14;98186.06;;;0.49;100.00
31346;BME280;21711;49.708;18.568;2023-11-22T12:22:49;98183.66;;;0.32;100.00
31346;BME280;21711;49.708;18.568;2023-11-22T12:25:16;98182.13;;;0.38;100.00
31346;BME280;21711;49.708;18.568;2023-11-22T12:27:45;98194.53;;;0.58;100.00
31346;BME280;21711;49.708;18.568;2023-11-22T12:30:33;98182.59;;;0.63;100.00
31346;BME280;21711;49.708;18.568;2023-11-22T12:33:10;98184.50;;;0.55;100.00
31346;BME280;21711;49.708;18.568;2023-11-22T12:35:43;98183.13;;;0.59;100.00
31346;BME280;21711;49.708;18.568;2023-11-22T12:38:11;98177.69;;;0.54;100.00
31346;BME280;21711;49.708;18.568;2023-11-22T12:40:44;98190.81;;;0.45;100.00
31346;BME280;21711;49.708;18.568;2023-11-22T12:43:14;98198.44;;;0.47;100.00
31346;BME280;21711;49.708;18.568;2023-11-22T12:45:42;98189.25;;;0.51;100.00
31346;BME280;21711;49.708;18.568;2023-11-22T12:48:22;98187.06;;;0.33;100.00
31346;BME280;21711;49.708;18.568;2023-11-22T12:50:53;98186.16;;;0.41;100.00
31346;BME280;21711;49.708;18.568;2023-11-22T12:53:21;98191.25;;;0.49;100.00
31346;BME280;21711;49.708;18.568;2023-11-22T12:55:51;98192.78;;;0.43;100.00
31346;BME280;21711;49.708;18.568;2023-11-22T12:58:22;98201.50;;;0.50;100.00
31346;BME280;21711;49.708;18.568;2023-11-22T13:00:53;98205.13;;;0.34;100.00